Airfield :
LOGIN :

Register | Disclaimer

   EN    FR    IT 

 










Legend :    VFR   Marginal VFR   IFR   Intensive IFR   Very Intensive IFR
Visi :
Ceiling :
>= 8 km
>= 3000ft
5 to 8 km
1000 to 3000 ft
1500m to 5 km
500 to 1000 ft
800 to 1500m
200 to 500 ft
< 800m
< 200 ft
Symbols :   Thunderstorms  Fog  Heavy snow  Heavy precipitations  Wind > 20 kt
SIGMETs :     Misc.  Thunderstorms  Icing  Turbulence  Mountain Waves  Volcanic Ashes






- Airport Elevation : 13 ft
- IATA code : SNR


LFRZ - St-Nazaire

CURRENT METAR :
  • 192100Z AUTO 26006KT CAVOK 19/17 Q1016 NOSIG

EXPIRED METARs :
  • 192030Z AUTO 27005KT CAVOK 19/17 Q1016 NOSIG
  • 192000Z AUTO 26006KT CAVOK 19/17 Q1016 NOSIG
  • 191930Z AUTO 28006KT CAVOK 20/16 Q1016 NOSIG
  • 191900Z AUTO 26008KT CAVOK 20/16 Q1016 NOSIG
  • 191830Z AUTO 26010KT 230V290 CAVOK 21/16 Q1016 NOSIG
  • 191800Z AUTO 25012KT CAVOK 22/16 Q1016 NOSIG
  • 191730Z AUTO 25010KT CAVOK 23/16 Q1016 NOSIG
  • 191700Z AUTO 27009KT 230V300 CAVOK 24/15 Q1016 NOSIG
  • 191630Z AUTO 27008KT 230V320 CAVOK 25/14 Q1017 NOSIG

TAF TAF LFRZ
Valid from the 19 at 18:00 until the 20 at 18:00 UTC


191700Z 1918/2018 27007KT CAVOK
PROB40
TEMPO 2001/2006 2000 BR BKN002
PROB40
TEMPO 2006/2008 BKN012
FM201000 25008KT 9999 BKN018
PROB30
TEMPO 2010/2016 4000 -DZRA OVC012
PROB40
TEMPO 2016/2018 4000 SHRA BKN008 BKN012CB



MET'MAP, your aeronautical weather chart ! - Copyright ORBIFLY December 2007 - Disclaimer

ORBIFLY MET'MAP TEAM :

Programming & Development : Alexandra Zaïnal
Original concept : Baudouin d'Aumeries
Technical & hardware support : Manuel Goepfert
Assistance : Marc-Olivier Méhu




SOURCES & CREDITS :

   NOAA